Air Navigation Services of Czech Republic  
Last data update:  13.12.2017 12:38:09 UTC Česká verze
   METEO Page displayed:  13.12.2017 12:46:40 UTC  
help
METAR EDDB 131220Z 19014KT 9999 FEW020 SCT300 04/M01 Q1008 NOSIG=
METAR EDDC 131220Z 18012KT CAVOK 03/M03 Q1009 NOSIG=
METAR EDDE 131220Z 20017KT 9999 FEW033 BKN300 04/M02 Q1005 TEMPO 20020G30KT=
METAR EDDF 131220Z 19014KT 160V220 9999 -RA FEW009 BKN025 04/M00 Q1007 TEMPO RASN=
METAR EDDM 131220Z 17011KT CAVOK 05/M03 Q1012 R88/190095 NOSIG=
METAR EDDN 131220Z 18011KT CAVOK 04/M03 Q1011 NOSIG=
METAR EDDP 131220Z 19015G25KT 9999 SCT040 BKN260 05/M01 Q1007 NOSIG=
METAR EDDT 131220Z 20013KT CAVOK 04/M01 Q1007 NOSIG=
METAR EDQM 131220Z 20015KT 9999 SCT040 01/M05 Q1008=
METAR EPBY 131230Z 22009KT CAVOK 03/M01 Q1011 =
METAR EPGD 131230Z 20013KT 170V230 9999 BKN019 01/M03 Q1008 =
METAR EPKK 131230Z 20003KT 160V250 9999 SCT050 05/M03 Q1015 =
METAR EPKT 131230Z 19007KT 160V230 9999 FEW029 03/M03 Q1014 =
METAR EPLL 131230Z 19006KT 9999 FEW026 03/M03 Q1014 =
METAR EPPO 131230Z 20011KT 9999 FEW030 04/M02 Q1011 R10/15//95 =
METAR EPRZ 131230Z VRB02KT 9999 FEW026 03/M04 Q1016 =
METAR EPWA 131230Z 25004KT 210V300 9999 BKN020 03/M02 Q1015 NOSIG=
METAR EPWR 131230Z 20012KT CAVOK 04/M04 Q1014 =
METAR LHBP 131230Z 29008KT CAVOK 06/M01 Q1017 NOSIG=
METAR LHSM 131215Z 27004KT 9999 FEW016 SCT083 05/01 Q1019 NOSIG=
METAR LKCV 131200Z 18008KT CAVOK 04/M04 Q1015 NOSIG=
METAR LKKB 131200Z 18012KT 9999 FEW030 BKN230 03/M05 Q1014 NOSIG=
METAR LKKU 131200Z 24007KT 9999 FEW031 05/M03 Q1017=
METAR LKKV 131230Z 19007KT 160V230 9999 FEW033 02/M05 Q1009 R29/090095 RMK REG QNH 1005=
METAR LKLN 131200Z AUTO 20011KT 9999 BKN220 03/M03 Q1013=
METAR LKMT 131230Z 22010KT CAVOK 04/M03 Q1016 NOSIG RMK REG QNH 1005=
METAR LKNA 131200Z 21007KT 9999 FEW027 BKN220 02/M04 Q1015 NOSIG=
METAR LKPD 131200Z 24004KT 9999 FEW030 BKN200 04/M03 Q1015 NOSIG=
METAR LKPR 131230Z 17010KT 9999 FEW030 03/M03 Q1012 NOSIG RMK REG QNH 1005=
METAR LKTB 131230Z 21008KT 9999 FEW029 04/M03 Q1016 NOSIG RMK REG QNH 1005=
METAR LKVO 131200Z 18009KT 9999 FEW018 04/M02 Q1013=
METAR LOWI 131220Z 26006KT 210V290 9999 FEW015 01/M03 Q1015 R08/19//95 NOSIG=
METAR LOWL 131220Z 12004KT 070V160 CAVOK 04/M01 Q1015 NOSIG=
METAR LOWS 131220Z 16007KT 120V180 CAVOK 04/M03 Q1014 NOSIG=
METAR LOWW 131220Z VRB02KT CAVOK 05/M02 Q1017 BECMG 16007KT=
METAR LZIB 131230Z 27006KT 240V330 9999 FEW030 05/M03 Q1017 NOSIG=
METAR LZKZ 131230Z 01008KT 9999 FEW030 04/M01 Q1016 NOSIG=
METAR LZPP 131230Z 29004KT 250V340 CAVOK 05/M04 Q1017=
METAR LZSL 131230Z 22006KT 9999 FEW035 04/M03 Q1016=
METAR LZTT 131230Z VRB02KT 9999 FEW018 02/M05 Q1014 NOSIG=
METAR LZZI 131230Z 23005KT 9999 FEW036 SCT045 03/M03 Q1016=